createdAt,value
2019-04-27T00:00:36.447Z,10.60
2019-04-27T00:03:06.753Z,10.60
2019-04-27T00:05:36.990Z,10.60
2019-04-27T00:08:09.957Z,10.60
2019-04-27T00:10:40.259Z,10.60
2019-04-27T00:13:09.026Z,10.50
2019-04-27T00:15:51.025Z,10.50
2019-04-27T00:18:26.742Z,10.40
2019-04-27T00:21:06.046Z,10.40
2019-04-27T00:23:35.164Z,10.40
2019-04-27T00:26:03.889Z,10.40
2019-04-27T00:28:33.226Z,10.30
2019-04-27T00:31:03.328Z,10.20
2019-04-27T00:33:33.815Z,10.10
2019-04-27T00:36:03.864Z,10.10
2019-04-27T00:38:34.098Z,10.00
2019-04-27T00:41:04.237Z,10.00
2019-04-27T00:43:32.878Z,9.90
2019-04-27T00:46:01.420Z,9.90
2019-04-27T00:48:30.011Z,9.80
2019-04-27T00:50:58.582Z,9.80
2019-04-27T00:53:27.100Z,9.80
2019-04-27T00:56:14.001Z,9.80
2019-04-27T00:58:45.499Z,9.70
2019-04-27T01:01:33.304Z,9.60
2019-04-27T01:04:06.242Z,9.60
2019-04-27T01:06:34.801Z,9.60
2019-04-27T01:09:03.858Z,9.50
2019-04-27T01:11:33.913Z,9.50
2019-04-27T01:14:03.856Z,9.40
2019-04-27T01:16:34.253Z,9.40
2019-04-27T01:19:03.671Z,9.40
2019-04-27T01:21:32.372Z,9.30
2019-04-27T01:24:01.038Z,9.30
2019-04-27T01:26:39.888Z,9.30
2019-04-27T01:29:12.861Z,9.20
2019-04-27T01:31:41.363Z,9.20
2019-04-27T01:34:09.947Z,9.20
2019-04-27T01:36:39.249Z,9.10
2019-04-27T01:39:10.388Z,9.10
2019-04-27T01:41:39.144Z,9.10
2019-04-27T01:44:09.206Z,9.10
2019-04-27T01:46:39.575Z,9.10
2019-04-27T01:49:09.221Z,9.10
2019-04-27T01:51:39.159Z,9.10
2019-04-27T01:54:10.957Z,9.10
2019-04-27T01:56:39.617Z,9.00
2019-04-27T01:59:08.673Z,8.90
2019-04-27T02:01:54.979Z,8.90
2019-04-27T02:04:25.271Z,8.80
2019-04-27T02:06:55.554Z,8.90
2019-04-27T02:09:24.063Z,8.80
2019-04-27T02:11:52.619Z,8.80
2019-04-27T02:14:21.274Z,8.80
2019-04-27T02:16:49.909Z,8.80
2019-04-27T02:19:19.360Z,8.80
2019-04-27T02:21:51.122Z,8.80
2019-04-27T02:24:18.709Z,8.80
2019-04-27T02:26:47.459Z,8.80
2019-04-27T02:29:20.359Z,8.70
2019-04-27T02:31:50.568Z,8.70
2019-04-27T02:34:23.519Z,8.80
2019-04-27T02:36:52.091Z,8.80
2019-04-27T02:39:21.683Z,8.80
2019-04-27T02:41:51.911Z,8.70
2019-04-27T02:44:25.223Z,8.70
2019-04-27T02:46:53.802Z,8.70
2019-04-27T02:49:22.395Z,8.70
2019-04-27T02:51:52.666Z,8.60
2019-04-27T02:54:22.503Z,8.60
2019-04-27T02:56:52.732Z,8.60
2019-04-27T02:59:21.333Z,8.60
2019-04-27T03:01:53.536Z,8.60
2019-04-27T03:04:21.764Z,8.70
2019-04-27T03:06:50.341Z,8.70
2019-04-27T03:09:20.558Z,8.70
2019-04-27T03:11:50.087Z,8.80
2019-04-27T03:14:29.731Z,8.90
2019-04-27T03:16:52.234Z,8.90
2019-04-27T03:19:22.465Z,8.90
2019-04-27T03:22:01.081Z,9.00
2019-04-27T03:24:49.614Z,8.90
2019-04-27T03:27:20.146Z,8.90
2019-04-27T03:29:49.898Z,8.80
2019-04-27T03:32:22.787Z,8.80
2019-04-27T03:34:52.320Z,8.80
2019-04-27T03:37:20.319Z,8.80
2019-04-27T03:39:49.874Z,8.80
2019-04-27T03:42:20.702Z,8.80
2019-04-27T03:44:50.753Z,8.80
2019-04-27T03:47:19.947Z,8.70
2019-04-27T03:49:50.531Z,8.70
2019-04-27T03:52:30.133Z,8.70
2019-04-27T03:55:19.973Z,8.60
2019-04-27T03:57:53.164Z,8.60
2019-04-27T04:00:23.539Z,8.60
2019-04-27T04:02:52.246Z,8.60
2019-04-27T04:05:20.823Z,8.60
2019-04-27T04:07:50.303Z,8.60
2019-04-27T04:10:19.974Z,8.60
2019-04-27T04:13:02.023Z,8.70
2019-04-27T04:15:39.866Z,8.70
2019-04-27T04:18:09.821Z,8.70
2019-04-27T04:20:40.500Z,8.70
2019-04-27T04:23:10.652Z,8.70
2019-04-27T04:25:40.985Z,8.70
2019-04-27T04:28:09.712Z,8.80
2019-04-27T04:30:40.249Z,8.80
2019-04-27T04:33:10.115Z,8.80
2019-04-27T04:35:39.788Z,8.80
2019-04-27T04:38:10.282Z,8.90
2019-04-27T04:40:40.777Z,8.90
2019-04-27T04:43:11.134Z,9.00
2019-04-27T04:45:50.477Z,9.00
2019-04-27T04:48:20.623Z,8.90
2019-04-27T04:50:50.029Z,9.00
2019-04-27T04:53:20.499Z,9.00
2019-04-27T04:55:49.067Z,9.10
2019-04-27T04:58:20.712Z,9.00
2019-04-27T05:00:50.002Z,9.10
2019-04-27T05:03:21.590Z,9.10
2019-04-27T05:05:50.093Z,9.20
2019-04-27T05:08:19.070Z,9.20
2019-04-27T05:10:49.519Z,9.30
2019-04-27T05:13:19.379Z,9.40
2019-04-27T05:15:48.677Z,9.50
2019-04-27T05:18:18.990Z,9.50
2019-04-27T05:20:52.116Z,9.60
2019-04-27T05:23:20.680Z,9.70
2019-04-27T05:25:49.416Z,9.80
2019-04-27T05:28:18.765Z,9.90
2019-04-27T05:30:48.919Z,10.10
2019-04-27T05:33:18.737Z,10.20
2019-04-27T05:35:49.196Z,10.40
2019-04-27T05:38:19.257Z,10.50
2019-04-27T05:40:49.850Z,10.60
2019-04-27T05:43:19.948Z,10.80
2019-04-27T05:45:57.068Z,10.90
2019-04-27T05:48:30.793Z,11.00
2019-04-27T05:51:01.840Z,11.10
2019-04-27T05:53:29.627Z,11.30
2019-04-27T05:55:59.443Z,11.30
2019-04-27T05:58:28.909Z,11.40
2019-04-27T06:00:59.384Z,12.10
2019-04-27T06:03:29.649Z,12.30
2019-04-27T06:05:59.381Z,12.80
2019-04-27T06:08:29.518Z,13.30
2019-04-27T06:10:59.229Z,13.00
2019-04-27T06:13:30.398Z,12.50
2019-04-27T06:15:59.239Z,12.30
2019-04-27T06:18:29.454Z,12.70
2019-04-27T06:20:59.636Z,13.60
2019-04-27T06:23:28.970Z,14.20
2019-04-27T06:25:57.811Z,14.70
2019-04-27T06:28:26.534Z,15.90
2019-04-27T06:30:55.118Z,16.00
2019-04-27T06:33:32.345Z,15.50
2019-04-27T06:35:53.903Z,15.00
2019-04-27T06:38:22.397Z,15.80
2019-04-27T06:40:50.982Z,15.90
2019-04-27T06:43:19.549Z,15.20
2019-04-27T06:45:48.785Z,14.80
2019-04-27T06:48:19.315Z,14.30
2019-04-27T06:50:50.208Z,13.90
2019-04-27T06:53:19.148Z,13.50
2019-04-27T06:55:49.639Z,13.10
2019-04-27T06:58:19.975Z,12.90
2019-04-27T07:00:49.677Z,13.10
2019-04-27T07:03:18.940Z,13.40
2019-04-27T07:05:48.678Z,13.50
2019-04-27T07:08:18.607Z,13.40
2019-04-27T07:10:48.975Z,13.30
2019-04-27T07:13:19.444Z,13.20
2019-04-27T07:15:48.571Z,12.90
2019-04-27T07:18:18.638Z,12.80
2019-04-27T07:20:48.528Z,12.80
2019-04-27T07:23:18.703Z,12.80
2019-04-27T07:25:48.771Z,12.70
2019-04-27T07:28:18.963Z,12.60
2019-04-27T07:30:48.754Z,12.60
2019-04-27T07:33:18.586Z,12.60
2019-04-27T07:35:48.994Z,12.70
2019-04-27T07:38:19.094Z,12.70
2019-04-27T07:40:48.898Z,12.70
2019-04-27T07:43:33.745Z,12.80
2019-04-27T07:46:02.307Z,12.90
2019-04-27T07:48:30.882Z,12.90
2019-04-27T07:50:59.455Z,12.90
2019-04-27T07:53:29.173Z,12.90
2019-04-27T07:55:59.297Z,12.80
2019-04-27T07:58:29.468Z,12.70
2019-04-27T08:00:59.432Z,12.60
2019-04-27T08:03:29.109Z,12.60
2019-04-27T08:05:58.826Z,12.60
2019-04-27T08:08:28.595Z,12.50
2019-04-27T08:10:57.352Z,12.30
2019-04-27T08:13:25.914Z,12.10
2019-04-27T08:15:54.498Z,12.00
2019-04-27T08:18:23.080Z,11.80
2019-04-27T08:20:51.662Z,11.70
2019-04-27T08:23:20.159Z,11.70
2019-04-27T08:25:49.020Z,11.50
2019-04-27T08:28:25.243Z,11.40
2019-04-27T08:30:55.465Z,11.40
2019-04-27T08:33:24.030Z,11.40
2019-04-27T08:35:52.872Z,11.40
2019-04-27T08:38:21.433Z,11.50
2019-04-27T08:40:49.948Z,11.50
2019-04-27T08:43:19.111Z,11.40
2019-04-27T08:45:48.828Z,11.40
2019-04-27T08:48:34.018Z,11.40
2019-04-27T08:50:51.169Z,11.40
2019-04-27T08:53:20.269Z,11.40
2019-04-27T08:55:49.639Z,11.40
2019-04-27T08:58:21.095Z,11.50
2019-04-27T09:00:49.229Z,11.60
2019-04-27T09:03:19.302Z,11.70
2019-04-27T09:05:49.022Z,11.70
2019-04-27T09:08:25.188Z,11.70
2019-04-27T09:11:01.087Z,11.80
2019-04-27T09:13:46.373Z,11.90
2019-04-27T09:16:22.634Z,11.90
2019-04-27T09:18:52.825Z,11.90
2019-04-27T09:21:21.409Z,12.00
2019-04-27T09:23:50.485Z,12.10
2019-04-27T09:26:19.097Z,12.00
2019-04-27T09:28:49.248Z,12.00
2019-04-27T09:31:19.620Z,12.00
2019-04-27T09:33:49.569Z,12.10
2019-04-27T09:36:19.295Z,12.10
2019-04-27T09:38:48.177Z,12.30
2019-04-27T09:41:17.022Z,12.20
2019-04-27T09:43:46.630Z,12.40
2019-04-27T09:46:15.734Z,12.50
2019-04-27T09:48:46.590Z,12.60
2019-04-27T09:51:16.227Z,12.70
2019-04-27T09:53:45.920Z,12.70
2019-04-27T09:56:18.956Z,12.60
2019-04-27T09:58:47.652Z,12.50
2019-04-27T10:01:18.102Z,12.50
2019-04-27T10:03:48.156Z,12.40
2019-04-27T10:06:16.972Z,12.50
2019-04-27T10:08:46.072Z,12.30
2019-04-27T10:11:16.225Z,12.30
2019-04-27T10:13:46.530Z,12.40
2019-04-27T10:16:15.238Z,12.30
2019-04-27T10:18:43.750Z,12.20
2019-04-27T10:21:13.667Z,12.20
2019-04-27T10:23:43.165Z,12.10
2019-04-27T10:26:12.510Z,12.20
2019-04-27T10:28:41.103Z,12.20
2019-04-27T10:31:09.734Z,12.30
2019-04-27T10:33:39.294Z,12.40
2019-04-27T10:36:08.416Z,12.30
2019-04-27T10:38:38.136Z,12.20
2019-04-27T10:41:07.707Z,12.30
2019-04-27T10:43:36.262Z,12.40
2019-04-27T10:46:06.563Z,12.30
2019-04-27T10:48:36.715Z,12.40
2019-04-27T10:51:07.039Z,12.50
2019-04-27T10:53:35.938Z,12.60
2019-04-27T10:56:05.829Z,12.50
2019-04-27T10:58:35.631Z,12.60
2019-04-27T11:01:06.053Z,12.60
2019-04-27T11:03:52.377Z,12.70
2019-04-27T11:06:37.471Z,12.70
2019-04-27T11:09:08.717Z,12.70
2019-04-27T11:11:37.379Z,12.60
2019-04-27T11:14:06.888Z,12.50
2019-04-27T11:16:37.617Z,12.40
2019-04-27T11:19:06.607Z,12.40
2019-04-27T11:21:35.718Z,12.40
2019-04-27T11:24:04.427Z,12.30
2019-04-27T11:26:32.937Z,11.90
2019-04-27T11:29:01.527Z,11.50
2019-04-27T11:31:30.190Z,11.20
2019-04-27T11:33:59.027Z,11.10
2019-04-27T11:36:29.320Z,11.00
2019-04-27T11:38:59.454Z,11.00
2019-04-27T11:41:28.050Z,10.90
2019-04-27T11:43:56.686Z,11.00
2019-04-27T11:46:26.688Z,11.10
2019-04-27T11:48:58.069Z,11.10
2019-04-27T11:51:26.620Z,11.10
2019-04-27T11:53:55.314Z,11.10
2019-04-27T11:56:23.827Z,11.00
2019-04-27T11:58:52.395Z,11.00
2019-04-27T12:01:22.135Z,11.00
2019-04-27T12:03:50.651Z,10.80
2019-04-27T12:06:19.239Z,10.70
2019-04-27T12:08:47.970Z,10.80
2019-04-27T12:11:16.550Z,10.80
2019-04-27T12:13:46.095Z,10.70
2019-04-27T12:16:17.603Z,10.50
2019-04-27T12:18:48.836Z,10.20
2019-04-27T12:21:16.517Z,10.20
2019-04-27T12:23:45.008Z,10.10
2019-04-27T12:26:15.886Z,10.20
2019-04-27T12:28:49.101Z,10.30
2019-04-27T12:31:22.287Z,10.30
2019-04-27T12:33:50.860Z,10.60
2019-04-27T12:36:19.434Z,11.00
2019-04-27T12:38:47.933Z,11.10
2019-04-27T12:41:16.511Z,11.30
2019-04-27T12:43:45.938Z,11.20
2019-04-27T12:46:16.051Z,11.10
2019-04-27T12:48:45.934Z,11.10
2019-04-27T12:51:14.974Z,11.10
2019-04-27T12:53:52.974Z,11.10
2019-04-27T12:56:22.790Z,11.00
2019-04-27T12:58:56.475Z,11.10
2019-04-27T13:01:26.719Z,11.00
2019-04-27T13:03:57.229Z,11.00
2019-04-27T13:06:25.438Z,11.20
2019-04-27T13:08:55.695Z,11.30
2019-04-27T13:11:26.533Z,11.40
2019-04-27T13:13:57.189Z,11.40
2019-04-27T13:16:26.842Z,11.50
2019-04-27T13:18:55.688Z,11.60
2019-04-27T13:21:26.269Z,11.50
2019-04-27T13:24:02.049Z,11.50
2019-04-27T13:26:25.119Z,11.40
2019-04-27T13:28:53.678Z,11.10
2019-04-27T13:31:22.272Z,11.10
2019-04-27T13:33:50.850Z,11.10
2019-04-27T13:36:19.445Z,11.10
2019-04-27T13:38:47.957Z,11.20
2019-04-27T13:41:28.381Z,11.30
2019-04-27T13:43:46.775Z,11.30
2019-04-27T13:46:16.994Z,11.40
2019-04-27T13:49:03.279Z,11.50
2019-04-27T13:51:45.381Z,11.60
2019-04-27T13:54:18.718Z,11.80
2019-04-27T13:56:46.072Z,11.90
2019-04-27T13:59:15.098Z,11.90
2019-04-27T14:01:43.710Z,12.00
2019-04-27T14:04:13.853Z,12.00
2019-04-27T14:06:42.572Z,12.00
2019-04-27T14:09:12.760Z,12.10
2019-04-27T14:11:41.445Z,12.20
2019-04-27T14:14:10.014Z,12.30
2019-04-27T14:16:39.194Z,12.20
2019-04-27T14:19:08.578Z,12.20
2019-04-27T14:21:38.617Z,12.20
2019-04-27T14:24:07.520Z,12.20
2019-04-27T14:26:36.113Z,12.20
2019-04-27T14:29:04.606Z,12.30
2019-04-27T14:31:33.341Z,12.20
2019-04-27T14:34:01.909Z,12.30
2019-04-27T14:36:30.501Z,12.20
2019-04-27T14:38:59.062Z,12.20
2019-04-27T14:41:28.195Z,12.40
2019-04-27T14:44:06.044Z,12.60
2019-04-27T14:46:28.359Z,12.70
2019-04-27T14:48:57.301Z,12.80
2019-04-27T14:51:25.893Z,12.80
2019-04-27T14:53:54.528Z,12.90
2019-04-27T14:56:24.902Z,12.90
2019-04-27T14:58:53.262Z,12.90
2019-04-27T15:01:21.863Z,12.70
2019-04-27T15:03:50.494Z,12.80
2019-04-27T15:06:19.809Z,12.90
2019-04-27T15:08:49.240Z,12.90
2019-04-27T15:11:19.365Z,12.90
2019-04-27T15:13:50.380Z,12.80
2019-04-27T15:16:18.301Z,12.90
2019-04-27T15:18:49.936Z,12.80
2019-04-27T15:21:20.279Z,12.70
2019-04-27T15:23:48.983Z,12.60
2019-04-27T15:26:20.290Z,12.50
2019-04-27T15:28:51.105Z,12.60
2019-04-27T15:31:26.295Z,12.80
2019-04-27T15:33:54.708Z,12.90
2019-04-27T15:36:39.899Z,12.90
2019-04-27T15:39:10.379Z,12.70
2019-04-27T15:41:43.437Z,12.60
2019-04-27T15:44:11.937Z,12.40
2019-04-27T15:46:40.459Z,12.40
2019-04-27T15:49:11.336Z,12.30
2019-04-27T15:51:39.247Z,12.20
2019-04-27T15:54:07.805Z,11.90
2019-04-27T15:56:37.048Z,11.40
2019-04-27T15:59:05.746Z,10.80
2019-04-27T16:01:35.808Z,10.30
2019-04-27T16:04:07.716Z,10.00
2019-04-27T16:06:35.297Z,9.70
2019-04-27T16:09:07.673Z,9.60
2019-04-27T16:11:37.168Z,9.30
2019-04-27T16:14:07.828Z,9.20
2019-04-27T16:16:38.185Z,9.10
2019-04-27T16:19:10.246Z,9.10
2019-04-27T16:21:41.602Z,9.00
2019-04-27T16:24:08.456Z,9.10
2019-04-27T16:26:38.689Z,9.10
2019-04-27T16:29:08.274Z,9.10
2019-04-27T16:31:38.459Z,9.20
2019-04-27T16:34:08.364Z,9.10
2019-04-27T16:36:43.439Z,9.20
2019-04-27T16:39:09.924Z,9.20
2019-04-27T16:41:38.918Z,9.20
2019-04-27T16:44:10.623Z,9.30
2019-04-27T16:46:42.777Z,9.30
2019-04-27T16:49:14.061Z,9.40
2019-04-27T16:51:40.376Z,9.40
2019-04-27T16:56:39.323Z,9.50
2019-04-27T16:59:35.601Z,9.50
2019-04-27T17:01:40.064Z,9.50
2019-04-27T17:04:11.262Z,9.40
2019-04-27T17:06:45.981Z,9.40
2019-04-27T17:09:11.763Z,9.50
2019-04-27T17:11:43.630Z,9.50
2019-04-27T17:12:41.372Z,9.50
2019-04-27T17:14:14.837Z,9.40
2019-04-27T17:16:58.172Z,9.40
2019-04-27T17:19:28.925Z,9.30
2019-04-27T17:21:58.756Z,9.30
2019-04-27T17:24:45.316Z,9.40
2019-04-27T17:27:11.259Z,9.40
2019-04-27T17:29:39.949Z,9.40
2019-04-27T17:32:10.421Z,9.40
2019-04-27T17:34:39.713Z,9.50
2019-04-27T17:37:08.382Z,9.40
2019-04-27T17:39:38.589Z,9.40
2019-04-27T17:42:08.478Z,9.50
2019-04-27T17:44:39.173Z,9.50
2019-04-27T17:47:10.327Z,9.40
2019-04-27T17:49:38.193Z,9.50
2019-04-27T17:52:08.624Z,9.50
2019-04-27T17:54:41.809Z,9.60
2019-04-27T17:57:10.441Z,9.60
2019-04-27T17:59:37.569Z,9.60
2019-04-27T18:02:06.233Z,9.70
2019-04-27T18:04:37.689Z,9.70
2019-04-27T18:07:05.188Z,9.70
2019-04-27T18:09:40.372Z,9.70
2019-04-27T18:12:09.703Z,9.70
2019-04-27T18:14:39.498Z,9.70
2019-04-27T18:17:10.327Z,9.60
2019-04-27T18:19:40.288Z,9.60
2019-04-27T18:22:07.070Z,9.60
2019-04-27T18:24:37.979Z,9.70
2019-04-27T18:27:18.392Z,9.60
2019-04-27T18:29:48.548Z,9.60
2019-04-27T18:32:17.294Z,9.60
2019-04-27T18:34:49.339Z,9.50
2019-04-27T18:37:21.292Z,9.40
2019-04-27T18:39:50.892Z,9.40
2019-04-27T18:42:18.080Z,9.30
2019-04-27T18:44:48.460Z,9.20
2019-04-27T18:47:16.933Z,9.20
2019-04-27T18:50:07.813Z,9.10
2019-04-27T18:52:47.767Z,9.10
2019-04-27T18:55:16.674Z,9.00
2019-04-27T18:57:46.082Z,9.00
2019-04-27T19:00:16.752Z,9.00
2019-04-27T19:02:45.272Z,9.00
2019-04-27T19:05:13.993Z,8.90
2019-04-27T19:07:42.746Z,8.90
2019-04-27T19:10:11.565Z,8.80
2019-04-27T19:12:40.137Z,8.80
2019-04-27T19:15:09.068Z,8.90
2019-04-27T19:17:38.692Z,9.00
2019-04-27T19:20:10.340Z,9.00
2019-04-27T19:22:38.686Z,9.10
2019-04-27T19:25:09.675Z,9.20
2019-04-27T19:27:42.757Z,9.20
2019-04-27T19:30:16.009Z,9.20
2019-04-27T19:32:44.517Z,9.20
2019-04-27T19:35:13.069Z,9.20
2019-04-27T19:37:41.586Z,9.20
2019-04-27T19:40:10.396Z,9.20
2019-04-27T19:42:38.981Z,9.30
2019-04-27T19:45:07.622Z,9.20
2019-04-27T19:47:36.211Z,9.20
2019-04-27T19:50:07.876Z,9.20
2019-04-27T19:52:36.454Z,9.20
2019-04-27T19:55:05.890Z,9.10
2019-04-27T19:57:39.214Z,9.10
2019-04-27T20:00:17.013Z,9.10
2019-04-27T20:02:45.672Z,9.00
2019-04-27T20:05:16.489Z,9.00
2019-04-27T20:07:44.974Z,9.00
2019-04-27T20:10:13.749Z,9.00
2019-04-27T20:12:42.333Z,8.90
2019-04-27T20:15:11.163Z,8.90
2019-04-27T20:17:40.920Z,8.80
2019-04-27T20:20:11.476Z,8.80
2019-04-27T20:22:40.057Z,8.70
2019-04-27T20:25:08.991Z,8.70
2019-04-27T20:27:46.235Z,8.70
2019-04-27T20:30:11.062Z,8.70
2019-04-27T20:32:39.887Z,8.70
2019-04-27T20:35:08.525Z,8.70
2019-04-27T20:37:37.029Z,8.70
2019-04-27T20:40:07.627Z,8.60
2019-04-27T20:42:36.219Z,8.60
2019-04-27T20:45:06.120Z,8.50
2019-04-27T20:47:34.705Z,8.50
2019-04-27T20:50:03.846Z,8.50
2019-04-27T20:52:36.494Z,8.50
2019-04-27T20:55:08.050Z,8.40
2019-04-27T20:57:36.713Z,8.40
2019-04-27T21:00:07.086Z,8.40
2019-04-27T21:02:49.426Z,8.40
2019-04-27T21:05:31.286Z,8.40
2019-04-27T21:08:07.457Z,8.30
2019-04-27T21:10:35.941Z,8.30
2019-04-27T21:13:04.688Z,8.30
2019-04-27T21:15:33.270Z,8.30
2019-04-27T21:18:01.862Z,8.30
2019-04-27T21:20:30.987Z,8.20
2019-04-27T21:23:01.708Z,8.20
2019-04-27T21:25:31.484Z,8.20
2019-04-27T21:28:14.847Z,8.20
2019-04-27T21:30:31.372Z,8.10
2019-04-27T21:33:01.151Z,8.10
2019-04-27T21:35:29.733Z,8.00
2019-04-27T21:37:58.324Z,8.00
2019-04-27T21:40:26.835Z,8.00
2019-04-27T21:42:55.411Z,8.00
2019-04-27T21:45:23.974Z,8.00
2019-04-27T21:47:52.486Z,7.90
2019-04-27T21:50:23.250Z,7.90
2019-04-27T21:53:00.581Z,7.80
2019-04-27T21:55:30.931Z,7.80
2019-04-27T21:58:01.398Z,7.80
2019-04-27T22:00:34.225Z,7.80
2019-04-27T22:03:02.950Z,7.80
2019-04-27T22:05:31.630Z,7.80
2019-04-27T22:08:00.867Z,7.80
2019-04-27T22:10:31.055Z,7.80
2019-04-27T22:12:59.770Z,7.90
2019-04-27T22:15:28.606Z,7.90
2019-04-27T22:17:57.207Z,7.90
2019-04-27T22:20:29.105Z,7.90
2019-04-27T22:22:58.481Z,7.90
2019-04-27T22:25:28.691Z,8.00
2019-04-27T22:27:57.277Z,8.10
2019-04-27T22:30:25.855Z,8.10
2019-04-27T22:32:54.421Z,8.20
2019-04-27T22:35:22.933Z,8.20
2019-04-27T22:37:51.808Z,8.30
2019-04-27T22:40:38.179Z,8.30
2019-04-27T22:43:08.462Z,8.30
2019-04-27T22:45:38.594Z,8.40
2019-04-27T22:48:07.873Z,8.40
2019-04-27T22:50:36.430Z,8.40
2019-04-27T22:53:05.126Z,8.30
2019-04-27T22:55:36.366Z,8.40
2019-04-27T22:58:09.338Z,8.30
2019-04-27T23:00:55.577Z,8.40
2019-04-27T23:03:25.983Z,8.30
2019-04-27T23:05:54.618Z,8.30
2019-04-27T23:08:23.135Z,8.30
2019-04-27T23:10:51.645Z,8.40
2019-04-27T23:13:21.361Z,8.40
2019-04-27T23:15:51.576Z,8.40
2019-04-27T23:18:20.823Z,8.40
2019-04-27T23:20:52.230Z,8.40
2019-04-27T23:23:21.770Z,8.40
2019-04-27T23:25:51.345Z,8.40
2019-04-27T23:28:20.891Z,8.40
2019-04-27T23:30:51.205Z,8.40
2019-04-27T23:33:21.135Z,8.40
2019-04-27T23:35:51.549Z,8.40
2019-04-27T23:38:20.991Z,8.50
2019-04-27T23:40:49.581Z,8.50
2019-04-27T23:43:18.166Z,8.50
2019-04-27T23:45:46.801Z,8.50
2019-04-27T23:48:15.389Z,8.50
2019-04-27T23:50:45.589Z,8.50
2019-04-27T23:53:15.748Z,8.50
2019-04-27T23:55:44.323Z,8.50
2019-04-27T23:58:13.001Z,8.50
